Time;durP1;ratioP1;P1;durP2;ratioP2;P2;SDS_P1;SDS_P2;PMS_P1;PMS_P2;Temp;Humidity;BMP_temperature;BMP_pressure;BME280_temperature;BME280_humidity;BME280_pressure;Samples;Min_cycle;Max_cycle;Signal;HPM_P1;HPM_P2
2023/08/18 00:00:41;;;;;;;20.35;6.20;;;;;;;;;;5024720;28;20407;-66
2023/08/18 00:03:07;;;;;;;13.43;5.05;;;;;;;;;;5021913;28;20024;-67
2023/08/18 00:05:33;;;;;;;15.77;5.93;;;;;;;;;;5022369;28;20040;-68
2023/08/18 00:07:59;;;;;;;14.75;5.85;;;;;;;;;;5006217;28;20036;-67
2023/08/18 00:10:25;;;;;;;16.00;5.53;;;;;;;;;;5020027;28;20094;-66
2023/08/18 00:12:52;;;;;;;15.07;5.20;;;;;;;;;;5020057;28;20433;-66
2023/08/18 00:15:18;;;;;;;13.68;5.32;;;;;;;;;;5001162;28;20258;-66
2023/08/18 00:17:44;;;;;;;14.95;5.07;;;;;;;;;;5024152;28;20024;-66
2023/08/18 00:20:10;;;;;;;14.15;5.50;;;;;;;;;;5019757;28;20033;-66
2023/08/18 00:22:36;;;;;;;16.15;5.70;;;;;;;;;;5021766;28;20684;-66
2023/08/18 00:25:03;;;;;;;17.67;5.82;;;;;;;;;;5016745;28;20041;-65
2023/08/18 00:27:30;;;;;;;14.95;5.55;;;;;;;;;;5021356;28;20025;-66
2023/08/18 00:29:56;;;;;;;14.70;5.82;;;;;;;;;;5004627;28;20342;-66
2023/08/18 00:32:22;;;;;;;18.50;6.28;;;;;;;;;;5019108;28;21681;-66
2023/08/18 00:34:48;;;;;;;22.60;6.25;;;;;;;;;;5022414;28;20029;-66
2023/08/18 00:37:15;;;;;;;18.73;5.88;;;;;;;;;;5020885;28;20695;-65
2023/08/18 00:39:41;;;;;;;17.38;5.63;;;;;;;;;;5022511;28;20029;-67
2023/08/18 00:42:07;;;;;;;17.13;6.00;;;;;;;;;;4998452;28;20025;-66
2023/08/18 00:44:34;;;;;;;13.82;4.75;;;;;;;;;;5005875;28;20322;-67
2023/08/18 00:47:00;;;;;;;14.93;5.45;;;;;;;;;;5019035;28;20025;-67
2023/08/18 00:49:27;;;;;;;18.00;6.18;;;;;;;;;;5019749;28;20037;-67
2023/08/18 00:51:53;;;;;;;18.83;6.18;;;;;;;;;;5018981;28;20032;-67
2023/08/18 00:54:19;;;;;;;16.63;5.68;;;;;;;;;;5002707;28;20029;-66
2023/08/18 00:56:46;;;;;;;17.05;6.35;;;;;;;;;;5018851;28;20366;-66
2023/08/18 00:59:13;;;;;;;16.23;5.18;;;;;;;;;;5019916;28;20116;-66
2023/08/18 01:01:40;;;;;;;13.60;5.80;;;;;;;;;;5020975;28;20103;-66
2023/08/18 01:04:06;;;;;;;14.98;5.57;;;;;;;;;;5019596;28;20213;-66
2023/08/18 01:06:33;;;;;;;15.60;5.55;;;;;;;;;;5001401;28;20043;-65
2023/08/18 01:08:59;;;;;;;18.15;5.80;;;;;;;;;;5000562;28;20033;-66
2023/08/18 01:11:37;;;;;;;17.00;5.97;;;;;;;;;;5000403;28;20032;-66
2023/08/18 01:14:15;;;;;;;16.33;5.63;;;;;;;;;;5024402;28;20032;-66
2023/08/18 01:16:43;;;;;;;18.08;5.80;;;;;;;;;;5025036;28;20029;-67
2023/08/18 01:19:10;;;;;;;12.25;4.40;;;;;;;;;;5005550;28;20041;-66
2023/08/18 01:21:36;;;;;;;14.35;4.90;;;;;;;;;;5026316;28;20053;-66
2023/08/18 01:24:05;;;;;;;15.82;5.22;;;;;;;;;;5004198;28;20029;-68
2023/08/18 01:26:32;;;;;;;14.88;4.75;;;;;;;;;;5026398;28;20345;-66
2023/08/18 01:28:58;;;;;;;17.05;5.35;;;;;;;;;;5024626;28;20037;-66
2023/08/18 01:31:27;;;;;;;17.63;5.95;;;;;;;;;;5006350;28;20037;-66
2023/08/18 01:34:13;;;;;;;14.60;5.25;;;;;;;;;;5024359;28;20480;-66
2023/08/18 01:36:41;;;;;;;15.57;6.10;;;;;;;;;;5022818;28;20350;-66
2023/08/18 01:39:07;;;;;;;13.77;5.03;;;;;;;;;;5023311;28;20150;-66
2023/08/18 01:41:34;;;;;;;15.60;5.00;;;;;;;;;;5024625;28;20411;-69
2023/08/18 01:44:00;;;;;;;12.90;5.07;;;;;;;;;;5025273;28;20040;-66
2023/08/18 01:46:26;;;;;;;18.20;5.43;;;;;;;;;;5020622;28;20047;-66
2023/08/18 01:48:53;;;;;;;14.63;5.45;;;;;;;;;;5028380;28;20035;-65
2023/08/18 01:51:19;;;;;;;14.13;5.60;;;;;;;;;;5025871;28;20095;-66
2023/08/18 01:53:45;;;;;;;15.20;5.32;;;;;;;;;;5004163;28;20372;-66
2023/08/18 01:56:11;;;;;;;12.35;5.07;;;;;;;;;;5024635;28;20617;-66
2023/08/18 01:58:37;;;;;;;13.70;6.00;;;;;;;;;;5027074;28;20033;-67
2023/08/18 02:01:04;;;;;;;13.45;5.35;;;;;;;;;;5009784;28;20032;-67
2023/08/18 02:03:30;;;;;;;16.63;6.00;;;;;;;;;;5008843;28;20883;-66
2023/08/18 02:05:56;;;;;;;15.82;5.60;;;;;;;;;;5025938;28;20088;-68
2023/08/18 02:08:23;;;;;;;15.55;5.57;;;;;;;;;;5025420;28;20160;-68
2023/08/18 02:10:49;;;;;;;14.30;5.43;;;;;;;;;;5028138;28;20544;-67
2023/08/18 02:13:15;;;;;;;16.52;5.93;;;;;;;;;;5023667;28;20029;-67
2023/08/18 02:15:45;;;;;;;19.75;5.78;;;;;;;;;;5027637;28;20029;-67
2023/08/18 02:18:11;;;;;;;14.20;5.57;;;;;;;;;;4999765;28;20033;-66
2023/08/18 02:20:38;;;;;;;15.98;5.68;;;;;;;;;;5025080;28;20033;-65
2023/08/18 02:23:04;;;;;;;16.13;5.90;;;;;;;;;;4999381;28;20034;-65
2023/08/18 02:25:30;;;;;;;17.08;5.72;;;;;;;;;;5022463;28;20365;-66
2023/08/18 02:27:57;;;;;;;21.23;5.88;;;;;;;;;;5021402;28;20551;-65
2023/08/18 02:30:23;;;;;;;16.17;5.75;;;;;;;;;;5003492;28;20029;-66
2023/08/18 02:32:49;;;;;;;15.93;5.47;;;;;;;;;;5008931;28;20045;-66
2023/08/18 02:35:15;;;;;;;12.00;4.80;;;;;;;;;;5017308;28;20043;-67
2023/08/18 02:37:41;;;;;;;16.73;5.68;;;;;;;;;;5022952;28;20429;-67
2023/08/18 02:40:08;;;;;;;14.65;5.68;;;;;;;;;;5020620;28;20033;-67
2023/08/18 02:42:35;;;;;;;15.68;5.82;;;;;;;;;;5005166;28;20025;-67
2023/08/18 02:45:02;;;;;;;16.90;5.78;;;;;;;;;;5006200;28;20039;-67
2023/08/18 02:47:28;;;;;;;17.23;6.40;;;;;;;;;;5025922;28;20044;-68
2023/08/18 02:49:54;;;;;;;15.23;5.97;;;;;;;;;;5002805;28;20048;-67
2023/08/18 02:52:20;;;;;;;14.82;6.00;;;;;;;;;;5021551;28;20149;-68
2023/08/18 02:54:47;;;;;;;15.63;5.40;;;;;;;;;;5002315;28;20474;-68
2023/08/18 02:57:13;;;;;;;13.82;5.40;;;;;;;;;;5018736;28;20047;-68
2023/08/18 02:59:39;;;;;;;14.00;5.38;;;;;;;;;;5022350;28;20120;-68
2023/08/18 03:02:05;;;;;;;13.43;4.50;;;;;;;;;;5021513;28;20029;-66
2023/08/18 03:04:31;;;;;;;15.30;5.60;;;;;;;;;;5020136;28;20045;-65
2023/08/18 03:06:57;;;;;;;15.93;5.82;;;;;;;;;;5022475;28;20041;-68
2023/08/18 03:09:23;;;;;;;20.95;5.82;;;;;;;;;;5022103;28;20032;-68
2023/08/18 03:11:50;;;;;;;18.00;6.05;;;;;;;;;;5022962;28;20029;-66
2023/08/18 03:14:17;;;;;;;17.40;5.78;;;;;;;;;;5019379;28;20252;-68
2023/08/18 03:16:43;;;;;;;14.63;5.88;;;;;;;;;;5024409;28;20036;-65
2023/08/18 03:19:09;;;;;;;17.00;5.40;;;;;;;;;;5018131;28;20029;-66
2023/08/18 03:21:36;;;;;;;15.18;5.63;;;;;;;;;;5008267;28;20542;-65
2023/08/18 03:24:02;;;;;;;15.20;5.80;;;;;;;;;;5025935;28;20045;-65
2023/08/18 03:26:28;;;;;;;14.55;5.47;;;;;;;;;;5004157;28;20040;-65
2023/08/18 03:28:56;;;;;;;16.95;6.53;;;;;;;;;;5019449;28;20041;-65
2023/08/18 03:31:22;;;;;;;15.27;5.88;;;;;;;;;;5016596;28;22995;-66
2023/08/18 03:33:49;;;;;;;14.50;5.88;;;;;;;;;;5021603;28;20130;-68
2023/08/18 03:36:15;;;;;;;16.70;5.35;;;;;;;;;;5017260;28;20050;-66
2023/08/18 03:38:41;;;;;;;18.60;5.68;;;;;;;;;;5022786;28;20942;-67
2023/08/18 03:41:07;;;;;;;15.15;5.57;;;;;;;;;;5016287;28;20287;-68
2023/08/18 03:43:34;;;;;;;13.68;5.75;;;;;;;;;;5004283;28;20535;-68
2023/08/18 03:46:01;;;;;;;18.17;6.00;;;;;;;;;;5022929;28;20094;-67
2023/08/18 03:48:27;;;;;;;15.40;6.07;;;;;;;;;;5018469;28;20094;-66
2023/08/18 03:50:54;;;;;;;17.73;5.78;;;;;;;;;;5022439;28;20466;-67
2023/08/18 03:53:23;;;;;;;17.75;6.00;;;;;;;;;;5020404;28;20025;-67
2023/08/18 03:55:50;;;;;;;15.70;5.93;;;;;;;;;;5004751;28;20064;-66
2023/08/18 03:58:17;;;;;;;16.77;5.90;;;;;;;;;;5018326;28;20471;-68
2023/08/18 04:00:43;;;;;;;16.70;5.97;;;;;;;;;;5021483;28;20115;-68
2023/08/18 04:03:09;;;;;;;15.65;5.38;;;;;;;;;;5017699;28;20426;-67
2023/08/18 04:05:36;;;;;;;18.08;5.93;;;;;;;;;;5023332;28;20033;-67
2023/08/18 04:08:03;;;;;;;17.88;5.88;;;;;;;;;;5021390;28;20029;-67
2023/08/18 04:10:29;;;;;;;15.90;6.40;;;;;;;;;;5020349;28;20029;-67
2023/08/18 04:12:55;;;;;;;15.57;5.88;;;;;;;;;;5019656;28;20064;-67
2023/08/18 04:15:21;;;;;;;15.32;5.63;;;;;;;;;;5015743;28;20112;-67
2023/08/18 04:17:47;;;;;;;17.70;6.28;;;;;;;;;;5020443;28;20047;-67
2023/08/18 04:20:14;;;;;;;16.73;6.35;;;;;;;;;;5016449;28;20040;-66
2023/08/18 04:22:41;;;;;;;16.33;6.13;;;;;;;;;;5018762;28;20492;-67
2023/08/18 04:25:07;;;;;;;16.05;5.85;;;;;;;;;;5016587;28;20036;-66
2023/08/18 04:27:33;;;;;;;21.17;6.30;;;;;;;;;;5018344;28;20017;-67
2023/08/18 04:29:59;;;;;;;15.35;6.57;;;;;;;;;;5015392;28;20033;-67
2023/08/18 04:32:25;;;;;;;15.50;5.97;;;;;;;;;;5016261;28;20017;-67
2023/08/18 04:34:52;;;;;;;17.63;5.45;;;;;;;;;;5015934;28;20045;-66
2023/08/18 04:37:18;;;;;;;14.85;5.63;;;;;;;;;;5015684;28;20072;-66
2023/08/18 04:39:44;;;;;;;14.20;5.70;;;;;;;;;;5003958;28;20127;-66
2023/08/18 04:42:10;;;;;;;18.63;6.47;;;;;;;;;;5001744;28;20334;-66
2023/08/18 04:44:37;;;;;;;16.25;6.35;;;;;;;;;;5018629;28;20426;-65
2023/08/18 04:47:03;;;;;;;14.88;5.82;;;;;;;;;;5012352;28;20038;-66
2023/08/18 04:49:29;;;;;;;16.40;6.32;;;;;;;;;;5018724;28;20037;-68
2023/08/18 04:51:55;;;;;;;20.63;6.50;;;;;;;;;;5000728;28;20335;-65
2023/08/18 04:54:21;;;;;;;17.98;6.65;;;;;;;;;;5014087;28;20088;-66
2023/08/18 04:56:47;;;;;;;17.13;6.38;;;;;;;;;;5000551;28;20053;-65
2023/08/18 04:59:13;;;;;;;20.25;6.28;;;;;;;;;;5015251;28;20492;-66
2023/08/18 05:01:39;;;;;;;14.90;6.22;;;;;;;;;;5014134;28;20132;-65
2023/08/18 05:04:06;;;;;;;16.08;6.32;;;;;;;;;;5012994;28;20056;-65
2023/08/18 05:06:32;;;;;;;17.55;6.70;;;;;;;;;;5015282;28;20485;-67
2023/08/18 05:08:58;;;;;;;19.63;6.53;;;;;;;;;;5019698;28;20534;-68
2023/08/18 05:11:24;;;;;;;17.45;6.47;;;;;;;;;;5016051;28;20441;-67
2023/08/18 05:13:50;;;;;;;18.95;5.95;;;;;;;;;;5000873;28;20053;-67
2023/08/18 05:16:16;;;;;;;14.80;6.00;;;;;;;;;;5016586;28;20169;-67
2023/08/18 05:18:42;;;;;;;17.10;6.20;;;;;;;;;;5017089;28;20044;-67
2023/08/18 05:21:08;;;;;;;17.08;6.05;;;;;;;;;;5013041;28;20037;-67
2023/08/18 05:23:35;;;;;;;18.63;6.18;;;;;;;;;;5002754;28;20487;-67
2023/08/18 05:26:01;;;;;;;19.17;6.60;;;;;;;;;;5014878;28;20482;-66
2023/08/18 05:28:28;;;;;;;18.63;6.45;;;;;;;;;;5018405;28;20029;-66
2023/08/18 05:30:55;;;;;;;15.88;5.72;;;;;;;;;;4999462;28;20577;-66
2023/08/18 05:33:21;;;;;;;20.23;6.25;;;;;;;;;;5014019;28;20531;-67
2023/08/18 05:35:47;;;;;;;16.95;5.43;;;;;;;;;;5018971;28;20057;-67
2023/08/18 05:38:14;;;;;;;13.90;4.97;;;;;;;;;;4997539;28;20484;-67
2023/08/18 05:40:40;;;;;;;15.85;6.03;;;;;;;;;;5018763;28;20048;-67
2023/08/18 05:43:07;;;;;;;16.23;6.07;;;;;;;;;;5015478;28;20029;-67
2023/08/18 05:45:36;;;;;;;13.68;5.15;;;;;;;;;;5017450;28;20029;-67
2023/08/18 05:48:02;;;;;;;15.20;4.65;;;;;;;;;;5020814;28;20133;-67
2023/08/18 05:50:29;;;;;;;13.80;5.47;;;;;;;;;;5012600;28;20573;-67
2023/08/18 05:52:55;;;;;;;13.77;4.78;;;;;;;;;;5016802;28;20025;-67
2023/08/18 05:55:23;;;;;;;15.73;5.50;;;;;;;;;;5014246;28;20067;-67
2023/08/18 05:57:49;;;;;;;15.63;5.28;;;;;;;;;;5017252;28;20464;-67
2023/08/18 06:00:15;;;;;;;15.85;5.10;;;;;;;;;;5024783;28;20715;-67
2023/08/18 06:02:42;;;;;;;15.10;4.97;;;;;;;;;;5002474;28;20241;-68
2023/08/18 06:05:12;;;;;;;20.55;5.10;;;;;;;;;;5022334;28;20541;-67
2023/08/18 06:07:41;;;;;;;18.27;5.20;;;;;;;;;;5007278;28;20029;-67
2023/08/18 06:10:08;;;;;;;17.85;6.38;;;;;;;;;;5019537;28;20144;-68
2023/08/18 06:12:34;;;;;;;18.45;5.43;;;;;;;;;;5022770;28;20037;-67
2023/08/18 06:15:01;;;;;;;17.17;5.47;;;;;;;;;;5024061;28;20452;-67
2023/08/18 06:17:27;;;;;;;21.00;5.90;;;;;;;;;;4999646;28;20028;-67
2023/08/18 06:19:53;;;;;;;13.52;5.53;;;;;;;;;;5016769;28;20037;-67
2023/08/18 06:22:19;;;;;;;15.63;5.65;;;;;;;;;;5020620;28;20087;-67
2023/08/18 06:24:45;;;;;;;17.38;6.18;;;;;;;;;;5019769;28;20028;-67
2023/08/18 06:27:12;;;;;;;15.63;6.70;;;;;;;;;;5019622;28;20108;-67
2023/08/18 06:29:39;;;;;;;13.65;5.18;;;;;;;;;;5007572;28;20427;-67
2023/08/18 06:32:05;;;;;;;13.45;5.13;;;;;;;;;;5015424;28;20033;-66
2023/08/18 06:34:31;;;;;;;18.30;6.20;;;;;;;;;;5019909;28;20684;-66
2023/08/18 06:36:57;;;;;;;17.88;6.35;;;;;;;;;;5024510;28;20040;-66
2023/08/18 06:39:24;;;;;;;18.85;6.05;;;;;;;;;;5019002;28;20171;-67
2023/08/18 06:41:50;;;;;;;19.83;6.53;;;;;;;;;;5022017;28;20053;-66
2023/08/18 06:44:16;;;;;;;16.33;6.88;;;;;;;;;;5021719;28;20061;-66
2023/08/18 06:46:42;;;;;;;20.27;7.07;;;;;;;;;;5022093;28;20355;-66
2023/08/18 06:49:08;;;;;;;18.27;6.78;;;;;;;;;;5006586;28;20464;-66
2023/08/18 06:51:34;;;;;;;21.38;6.78;;;;;;;;;;5024245;28;20029;-66
2023/08/18 06:54:00;;;;;;;16.70;6.50;;;;;;;;;;5024571;28;20553;-67
2023/08/18 06:56:26;;;;;;;17.92;6.85;;;;;;;;;;5020742;28;20483;-67
2023/08/18 06:58:53;;;;;;;23.20;6.85;;;;;;;;;;5020094;28;20037;-68
2023/08/18 07:01:19;;;;;;;21.15;7.07;;;;;;;;;;5020585;28;20388;-67
2023/08/18 07:03:47;;;;;;;17.42;6.47;;;;;;;;;;5022640;28;20031;-67
2023/08/18 07:06:13;;;;;;;16.73;6.57;;;;;;;;;;5018663;28;20025;-67
2023/08/18 07:08:40;;;;;;;19.23;6.25;;;;;;;;;;5018275;28;20048;-66
2023/08/18 07:11:06;;;;;;;19.40;7.43;;;;;;;;;;5022543;28;20487;-67
2023/08/18 07:13:32;;;;;;;17.30;7.07;;;;;;;;;;5017571;28;20686;-67
2023/08/18 07:15:58;;;;;;;18.10;6.53;;;;;;;;;;5025306;28;20369;-66
2023/08/18 07:18:24;;;;;;;20.17;6.15;;;;;;;;;;5022441;28;20144;-66
2023/08/18 07:20:52;;;;;;;15.15;6.10;;;;;;;;;;5023797;28;20507;-67
2023/08/18 07:23:18;;;;;;;17.88;6.20;;;;;;;;;;5005693;28;20578;-67
2023/08/18 07:25:45;;;;;;;20.77;6.82;;;;;;;;;;5020093;28;20174;-66
2023/08/18 07:28:11;;;;;;;19.00;6.30;;;;;;;;;;5019656;28;20025;-67
2023/08/18 07:30:37;;;;;;;15.90;6.90;;;;;;;;;;5022731;28;20036;-67
2023/08/18 07:33:03;;;;;;;17.15;6.10;;;;;;;;;;5021288;28;20556;-67
2023/08/18 07:35:29;;;;;;;18.30;6.15;;;;;;;;;;5025005;28;20625;-68
2023/08/18 07:37:56;;;;;;;18.98;5.85;;;;;;;;;;5022031;28;20040;-66
2023/08/18 07:40:22;;;;;;;18.92;5.93;;;;;;;;;;5021260;28;20506;-65
2023/08/18 07:42:48;;;;;;;18.63;6.20;;;;;;;;;;5023333;28;20091;-66
2023/08/18 07:45:14;;;;;;;18.17;5.90;;;;;;;;;;5019464;28;20289;-66
2023/08/18 07:47:42;;;;;;;14.50;5.45;;;;;;;;;;5002091;28;20021;-66
2023/08/18 07:50:12;;;;;;;16.42;5.75;;;;;;;;;;5013737;28;20195;-66
2023/08/18 07:52:38;;;;;;;16.35;5.80;;;;;;;;;;5001361;28;20029;-66
2023/08/18 07:55:05;;;;;;;20.60;6.22;;;;;;;;;;4996296;28;20502;-67
2023/08/18 07:57:32;;;;;;;13.13;5.28;;;;;;;;;;5024456;28;20396;-67
2023/08/18 07:59:58;;;;;;;17.48;5.57;;;;;;;;;;5021215;28;20040;-66
2023/08/18 08:02:24;;;;;;;16.55;5.88;;;;;;;;;;5019066;28;20442;-66
2023/08/18 08:04:53;;;;;;;14.45;5.75;;;;;;;;;;5022673;28;20030;-66
2023/08/18 08:07:19;;;;;;;15.90;5.95;;;;;;;;;;5019611;28;20121;-66
2023/08/18 08:09:46;;;;;;;18.08;5.95;;;;;;;;;;5005989;28;20102;-66
2023/08/18 08:12:12;;;;;;;15.35;5.20;;;;;;;;;;5021880;28;20467;-66
2023/08/18 08:14:39;;;;;;;19.15;5.32;;;;;;;;;;5021028;28;20036;-66
2023/08/18 08:17:05;;;;;;;15.65;6.07;;;;;;;;;;5020097;28;20130;-67
2023/08/18 08:19:31;;;;;;;16.75;5.80;;;;;;;;;;5018333;28;20450;-66
2023/08/18 08:21:58;;;;;;;17.95;5.75;;;;;;;;;;5019092;28;20774;-66
2023/08/18 08:24:24;;;;;;;15.45;5.20;;;;;;;;;;5018244;28;20116;-66
2023/08/18 08:26:50;;;;;;;14.10;5.45;;;;;;;;;;5020161;28;20064;-66
2023/08/18 08:29:16;;;;;;;14.77;4.93;;;;;;;;;;5019196;28;20087;-66
2023/08/18 08:31:42;;;;;;;17.15;5.03;;;;;;;;;;5022859;28;20037;-66
2023/08/18 08:34:08;;;;;;;17.45;5.60;;;;;;;;;;5017079;28;20037;-66
2023/08/18 08:36:35;;;;;;;16.40;5.25;;;;;;;;;;5004325;28;20084;-66
2023/08/18 08:39:01;;;;;;;15.65;4.97;;;;;;;;;;5004435;28;20025;-66
2023/08/18 08:41:27;;;;;;;14.80;4.93;;;;;;;;;;5018133;28;20547;-67
2023/08/18 08:43:54;;;;;;;19.67;5.35;;;;;;;;;;5008171;28;20036;-66
2023/08/18 08:46:21;;;;;;;15.10;4.78;;;;;;;;;;5020100;28;20029;-67
2023/08/18 08:48:47;;;;;;;15.52;4.95;;;;;;;;;;5024958;28;20036;-67
2023/08/18 08:51:15;;;;;;;13.90;4.70;;;;;;;;;;5018425;28;20562;-67
2023/08/18 08:53:47;;;;;;;13.52;4.70;;;;;;;;;;5020433;28;20123;-67
2023/08/18 08:56:14;;;;;;;16.55;4.90;;;;;;;;;;5019619;28;20228;-66
2023/08/18 08:58:41;;;;;;;15.80;4.93;;;;;;;;;;5020288;28;20035;-67
2023/08/18 09:01:07;;;;;;;15.55;4.80;;;;;;;;;;5017455;28;20068;-66
2023/08/18 09:03:33;;;;;;;14.63;4.93;;;;;;;;;;5003203;28;20460;-66
2023/08/18 09:05:59;;;;;;;17.30;5.50;;;;;;;;;;5003151;28;20468;-67
2023/08/18 09:08:26;;;;;;;17.70;5.32;;;;;;;;;;5001114;28;20032;-66
2023/08/18 09:10:52;;;;;;;16.27;4.78;;;;;;;;;;5022405;28;20036;-67
2023/08/18 09:13:18;;;;;;;14.88;4.60;;;;;;;;;;5018761;28;20076;-66
2023/08/18 09:15:45;;;;;;;16.92;5.28;;;;;;;;;;5005666;28;20197;-67
2023/08/18 09:18:18;;;;;;;16.27;5.20;;;;;;;;;;5019353;28;20386;-66
2023/08/18 09:20:45;;;;;;;16.45;5.10;;;;;;;;;;5019011;28;20028;-66
2023/08/18 09:23:12;;;;;;;14.02;4.60;;;;;;;;;;5003668;28;20029;-66
2023/08/18 09:25:38;;;;;;;15.95;4.95;;;;;;;;;;5007058;28;20086;-67
2023/08/18 09:28:05;;;;;;;16.90;5.18;;;;;;;;;;5020436;28;20033;-66
2023/08/18 09:30:32;;;;;;;16.30;5.00;;;;;;;;;;5021562;28;20515;-67
2023/08/18 09:33:01;;;;;;;18.15;5.18;;;;;;;;;;5005924;28;20506;-67
2023/08/18 09:35:32;;;;;;;14.43;4.80;;;;;;;;;;5028975;28;20392;-67
2023/08/18 09:37:59;;;;;;;16.27;5.13;;;;;;;;;;5023728;28;20037;-66
2023/08/18 09:40:25;;;;;;;14.75;4.60;;;;;;;;;;5005398;28;20229;-67
2023/08/18 09:42:51;;;;;;;13.93;5.22;;;;;;;;;;5028350;28;20216;-67
2023/08/18 09:45:22;;;;;;;16.02;5.43;;;;;;;;;;5023112;28;20039;-67
2023/08/18 09:47:49;;;;;;;15.88;4.70;;;;;;;;;;5009327;28;20516;-67
2023/08/18 09:50:16;;;;;;;18.15;5.38;;;;;;;;;;5021342;28;20147;-67
2023/08/18 09:52:42;;;;;;;17.73;4.97;;;;;;;;;;5024938;28;20009;-67
2023/08/18 09:55:08;;;;;;;17.48;4.93;;;;;;;;;;5023113;28;20040;-67
2023/08/18 09:57:37;;;;;;;14.15;4.97;;;;;;;;;;5028044;28;20017;-67
2023/08/18 10:00:04;;;;;;;14.52;4.55;;;;;;;;;;5022215;28;20052;-66
2023/08/18 10:02:34;;;;;;;12.65;4.40;;;;;;;;;;5023988;28;20485;-67
2023/08/18 10:05:00;;;;;;;14.93;4.28;;;;;;;;;;5023646;28;20037;-67
2023/08/18 10:07:27;;;;;;;19.42;4.82;;;;;;;;;;5022216;28;20548;-67
2023/08/18 10:09:54;;;;;;;14.35;4.45;;;;;;;;;;5026153;28;20033;-67
2023/08/18 10:12:21;;;;;;;19.73;4.78;;;;;;;;;;5005751;28;20028;-67
2023/08/18 10:14:49;;;;;;;15.10;5.07;;;;;;;;;;5026457;28;20037;-67
2023/08/18 10:17:15;;;;;;;18.15;4.85;;;;;;;;;;5024679;28;20778;-67
2023/08/18 10:19:46;;;;;;;14.20;4.45;;;;;;;;;;5020477;28;20029;-68
2023/08/18 10:22:12;;;;;;;14.70;4.60;;;;;;;;;;5023005;28;20028;-67
2023/08/18 10:24:38;;;;;;;17.08;4.90;;;;;;;;;;5003132;28;20505;-66
2023/08/18 10:27:07;;;;;;;17.88;4.00;;;;;;;;;;5006888;28;20025;-67
2023/08/18 10:29:35;;;;;;;17.88;4.90;;;;;;;;;;5023998;28;20557;-67
2023/08/18 10:32:08;;;;;;;17.92;5.03;;;;;;;;;;5023186;28;20064;-67
2023/08/18 10:34:34;;;;;;;13.38;4.55;;;;;;;;;;5023327;28;20063;-66
2023/08/18 10:37:00;;;;;;;13.57;4.18;;;;;;;;;;5022476;28;20041;-67
2023/08/18 10:39:29;;;;;;;16.42;4.70;;;;;;;;;;5001328;28;20028;-67
2023/08/18 10:42:13;;;;;;;16.27;4.35;;;;;;;;;;5007306;28;20059;-67
2023/08/18 10:44:56;;;;;;;13.05;4.30;;;;;;;;;;5023408;28;20033;-67
2023/08/18 10:47:29;;;;;;;14.38;4.80;;;;;;;;;;5021413;28;20708;-67
2023/08/18 10:49:55;;;;;;;16.88;4.45;;;;;;;;;;5004797;28;20041;-67
2023/08/18 10:52:22;;;;;;;17.75;4.88;;;;;;;;;;5020683;28;20037;-67
2023/08/18 10:54:48;;;;;;;16.33;3.95;;;;;;;;;;5000960;28;20099;-67
2023/08/18 10:57:14;;;;;;;18.10;5.00;;;;;;;;;;5018724;28;20034;-67
2023/08/18 10:59:40;;;;;;;15.30;4.47;;;;;;;;;;5018891;28;20062;-67
2023/08/18 11:02:07;;;;;;;17.10;4.60;;;;;;;;;;5016975;28;20274;-68
2023/08/18 11:04:33;;;;;;;16.40;4.53;;;;;;;;;;5027513;28;20426;-66
2023/08/18 11:07:00;;;;;;;14.43;4.55;;;;;;;;;;5022946;28;20491;-67
2023/08/18 11:09:26;;;;;;;16.00;4.60;;;;;;;;;;5029606;28;20076;-66
2023/08/18 11:11:52;;;;;;;14.40;4.05;;;;;;;;;;5031863;28;20044;-67
2023/08/18 11:14:18;;;;;;;18.23;4.32;;;;;;;;;;5004391;28;20500;-67
2023/08/18 11:16:44;;;;;;;14.50;4.50;;;;;;;;;;5018439;28;20089;-66
2023/08/18 11:19:10;;;;;;;12.93;4.10;;;;;;;;;;5017769;28;20119;-66
2023/08/18 11:21:37;;;;;;;19.20;4.97;;;;;;;;;;5018130;28;20021;-66
2023/08/18 11:24:04;;;;;;;17.42;4.53;;;;;;;;;;5016709;28;20083;-67
2023/08/18 11:26:31;;;;;;;14.65;4.75;;;;;;;;;;5005357;28;20688;-70
2023/08/18 11:28:57;;;;;;;16.67;4.45;;;;;;;;;;5000899;28;20414;-67
2023/08/18 11:31:23;;;;;;;20.23;4.95;;;;;;;;;;5016452;28;20508;-67
2023/08/18 11:33:49;;;;;;;13.48;4.05;;;;;;;;;;5020093;28;20391;-66
2023/08/18 11:36:16;;;;;;;17.30;4.30;;;;;;;;;;5015319;28;20050;-66
2023/08/18 11:38:43;;;;;;;15.48;4.13;;;;;;;;;;5015879;28;20733;-66
2023/08/18 11:41:09;;;;;;;14.02;4.25;;;;;;;;;;5015960;28;20050;-67
2023/08/18 11:43:36;;;;;;;14.77;4.18;;;;;;;;;;5017358;28;20687;-66
2023/08/18 11:46:02;;;;;;;16.48;4.40;;;;;;;;;;5022353;28;20032;-67
2023/08/18 11:48:29;;;;;;;14.95;4.53;;;;;;;;;;5011047;28;20305;-69
2023/08/18 11:50:56;;;;;;;16.88;4.43;;;;;;;;;;5002658;28;20440;-67
2023/08/18 11:53:25;;;;;;;12.40;4.15;;;;;;;;;;5016600;28;20395;-67
2023/08/18 11:55:51;;;;;;;14.82;4.20;;;;;;;;;;5014236;28;20022;-69
2023/08/18 11:58:18;;;;;;;11.65;3.95;;;;;;;;;;5011003;28;20033;-67
2023/08/18 12:00:45;;;;;;;17.38;4.13;;;;;;;;;;5002078;28;20549;-67
2023/08/18 12:03:22;;;;;;;13.50;4.05;;;;;;;;;;5009878;28;20496;-67
2023/08/18 12:05:48;;;;;;;13.13;3.88;;;;;;;;;;5017263;28;20499;-67
2023/08/18 12:08:14;;;;;;;13.43;3.60;;;;;;;;;;5014819;28;20299;-67
2023/08/18 12:10:42;;;;;;;11.90;3.72;;;;;;;;;;5014683;28;20037;-67
2023/08/18 12:13:08;;;;;;;12.60;3.83;;;;;;;;;;4994974;28;20609;-68
2023/08/18 12:15:34;;;;;;;16.25;3.80;;;;;;;;;;5014781;28;20243;-67
2023/08/18 12:18:00;;;;;;;15.55;3.85;;;;;;;;;;5017921;28;20296;-67
2023/08/18 12:20:27;;;;;;;13.70;3.80;;;;;;;;;;5014193;28;20470;-67
2023/08/18 12:22:53;;;;;;;14.57;4.18;;;;;;;;;;4995701;28;20531;-67
2023/08/18 12:25:20;;;;;;;13.27;3.92;;;;;;;;;;4995553;28;20435;-67
2023/08/18 12:27:47;;;;;;;13.10;3.78;;;;;;;;;;5014239;28;20026;-69
2023/08/18 12:30:14;;;;;;;16.17;3.72;;;;;;;;;;5011365;28;20037;-69
2023/08/18 12:32:40;;;;;;;10.73;3.70;;;;;;;;;;5014917;28;20139;-68
2023/08/18 12:35:07;;;;;;;14.52;4.20;;;;;;;;;;5011804;28;20355;-68
2023/08/18 12:37:34;;;;;;;14.45;3.85;;;;;;;;;;5012825;28;20061;-68
2023/08/18 12:40:00;;;;;;;12.15;3.60;;;;;;;;;;4995797;28;20040;-68
2023/08/18 12:42:26;;;;;;;14.90;4.68;;;;;;;;;;5010598;28;20069;-68
2023/08/18 12:44:52;;;;;;;14.15;4.28;;;;;;;;;;5014992;28;20037;-68
2023/08/18 12:47:19;;;;;;;12.52;3.38;;;;;;;;;;5017546;28;20451;-67
2023/08/18 12:49:45;;;;;;;14.75;3.67;;;;;;;;;;5015760;28;20136;-69
2023/08/18 12:52:13;;;;;;;13.40;3.85;;;;;;;;;;4992828;28;20527;-68
2023/08/18 12:54:40;;;;;;;15.20;4.07;;;;;;;;;;5013838;28;20033;-68
2023/08/18 12:57:06;;;;;;;15.10;3.65;;;;;;;;;;5012827;28;20029;-69
2023/08/18 12:59:32;;;;;;;15.23;3.97;;;;;;;;;;5013843;28;20021;-68
2023/08/18 13:01:58;;;;;;;15.38;3.72;;;;;;;;;;5021792;28;20098;-67
2023/08/18 13:04:25;;;;;;;15.57;4.20;;;;;;;;;;4996384;28;20354;-67
2023/08/18 13:06:51;;;;;;;11.98;3.88;;;;;;;;;;5014110;28;20133;-67
2023/08/18 13:09:18;;;;;;;12.82;3.55;;;;;;;;;;4998207;28;20559;-67
2023/08/18 13:11:45;;;;;;;15.32;3.85;;;;;;;;;;5015696;28;20510;-67
2023/08/18 13:14:11;;;;;;;14.77;3.75;;;;;;;;;;5016427;28;20107;-67
2023/08/18 13:16:41;;;;;;;16.33;4.07;;;;;;;;;;5017053;28;20258;-67
2023/08/18 13:19:07;;;;;;;13.02;3.63;;;;;;;;;;5016072;28;20552;-67
2023/08/18 13:21:33;;;;;;;14.07;4.03;;;;;;;;;;5020359;28;20033;-67
2023/08/18 13:23:59;;;;;;;14.55;3.67;;;;;;;;;;5016531;28;20029;-68
2023/08/18 13:26:26;;;;;;;13.27;3.63;;;;;;;;;;5013635;28;20088;-67
2023/08/18 13:28:52;;;;;;;13.68;3.55;;;;;;;;;;5016737;28;20190;-68
2023/08/18 13:31:19;;;;;;;12.35;3.75;;;;;;;;;;5017156;28;20406;-68
2023/08/18 13:33:45;;;;;;;14.30;3.67;;;;;;;;;;5024448;28;20539;-68
2023/08/18 13:36:11;;;;;;;12.88;3.75;;;;;;;;;;5018982;28;20565;-67
2023/08/18 13:38:38;;;;;;;14.23;3.63;;;;;;;;;;5018086;28;20032;-67
2023/08/18 13:41:04;;;;;;;14.20;3.97;;;;;;;;;;5014967;28;20040;-67
2023/08/18 13:43:30;;;;;;;14.57;4.00;;;;;;;;;;4998439;28;20800;-68
2023/08/18 13:45:57;;;;;;;13.77;3.95;;;;;;;;;;5001417;28;20590;-67
2023/08/18 13:48:23;;;;;;;11.95;3.70;;;;;;;;;;5000815;28;20062;-68
2023/08/18 13:50:49;;;;;;;12.60;3.55;;;;;;;;;;5017170;28;20962;-67
2023/08/18 13:53:16;;;;;;;13.38;3.70;;;;;;;;;;5013109;28;20304;-67
2023/08/18 13:55:45;;;;;;;12.10;3.70;;;;;;;;;;5020556;28;20043;-67
2023/08/18 13:58:11;;;;;;;12.75;3.33;;;;;;;;;;5007537;28;20601;-67
2023/08/18 14:00:38;;;;;;;12.80;3.63;;;;;;;;;;4999598;28;20039;-67
2023/08/18 14:03:05;;;;;;;12.35;3.65;;;;;;;;;;4998112;28;20025;-69
2023/08/18 14:05:31;;;;;;;13.10;3.85;;;;;;;;;;5000240;28;20029;-66
2023/08/18 14:07:57;;;;;;;13.80;3.92;;;;;;;;;;5016039;28;20033;-68
2023/08/18 14:10:23;;;;;;;13.07;3.67;;;;;;;;;;4997277;28;21842;-67
2023/08/18 14:12:50;;;;;;;13.00;3.67;;;;;;;;;;5018820;28;20103;-69
2023/08/18 14:15:16;;;;;;;15.02;3.70;;;;;;;;;;4999254;28;20486;-68
2023/08/18 14:17:47;;;;;;;13.68;3.80;;;;;;;;;;5014521;28;20451;-68
2023/08/18 14:20:14;;;;;;;11.23;3.90;;;;;;;;;;5012204;28;20028;-67
2023/08/18 14:22:44;;;;;;;13.15;3.60;;;;;;;;;;5015282;28;20034;-67
2023/08/18 14:25:11;;;;;;;9.98;3.40;;;;;;;;;;5013620;28;20029;-67
2023/08/18 14:27:37;;;;;;;17.55;3.90;;;;;;;;;;5016506;28;20056;-68